Time;durP1;ratioP1;P1;durP2;ratioP2;P2;SDS_P1;SDS_P2;PMS_P1;PMS_P2;Temp;Humidity;BMP_temperature;BMP_pressure;BME280_temperature;BME280_humidity;BME280_pressure;Samples;Min_cycle;Max_cycle;Signal;HPM_P1;HPM_P2
2022/05/28 00:01:21;;;;;;;6.60;1.90;;;;;;;11.49;100.00;101826.13;4992849;28;20435;-83
2022/05/28 00:03:48;;;;;;;7.17;1.60;;;;;;;11.60;100.00;101810.56;4993493;28;20338;-77
2022/05/28 00:06:18;;;;;;;7.97;1.80;;;;;;;11.58;100.00;101804.56;4992483;28;20472;-78
2022/05/28 00:08:44;;;;;;;7.53;1.70;;;;;;;11.49;100.00;101809.19;4993115;28;20723;-76
2022/05/28 00:11:19;;;;;;;4.57;1.80;;;;;;;10.60;100.00;101704.97;4997680;28;21557;-76
2022/05/28 00:13:45;;;;;;;9.63;1.83;;;;;;;11.41;100.00;101787.75;4991275;28;20200;-78
2022/05/28 00:16:12;;;;;;;7.47;1.90;;;;;;;11.21;100.00;101784.72;4995285;28;20437;-80
2022/05/28 00:18:40;;;;;;;6.73;1.47;;;;;;;11.44;100.00;101809.72;4994034;28;20458;-79
2022/05/28 00:21:07;;;;;;;7.70;1.40;;;;;;;11.11;100.00;101784.09;4997086;28;20909;-78
2022/05/28 00:23:33;;;;;;;8.80;2.40;;;;;;;11.28;100.00;101804.44;4994227;28;20526;-76
2022/05/28 00:25:58;;;;;;;8.63;1.60;;;;;;;11.35;100.00;101810.78;4996250;28;20532;-75
2022/05/28 00:28:23;;;;;;;5.00;1.50;;;;;;;11.17;100.00;101797.69;4994625;28;20217;-76
2022/05/28 00:30:49;;;;;;;5.40;1.80;;;;;;;11.31;100.00;101813.00;4996628;28;21115;-77
2022/05/28 00:33:16;;;;;;;11.07;2.63;;;;;;;11.27;100.00;101797.44;5001805;28;20902;-77
2022/05/28 00:35:42;;;;;;;10.37;1.93;;;;;;;10.92;100.00;101724.53;4999719;28;20173;-80
2022/05/28 00:38:08;;;;;;;6.53;1.70;;;;;;;11.46;100.00;101821.13;4997683;28;20471;-77
2022/05/28 00:40:33;;;;;;;5.63;1.70;;;;;;;11.35;100.00;101805.41;4996194;28;20518;-82
2022/05/28 00:43:01;;;;;;;5.77;1.30;;;;;;;11.37;100.00;101800.72;4994723;28;20189;-76
2022/05/28 00:45:28;;;;;;;6.30;1.87;;;;;;;11.31;100.00;101810.31;4995784;28;20189;-80
2022/05/28 00:47:57;;;;;;;8.13;1.67;;;;;;;11.19;100.00;101771.47;4991197;28;20456;-78
2022/05/28 00:50:23;;;;;;;5.50;1.70;;;;;;;11.30;100.00;101805.13;4994777;28;20472;-77
2022/05/28 00:52:49;;;;;;;8.00;1.70;;;;;;;11.37;100.00;101813.28;4996091;28;20440;-78
2022/05/28 00:55:17;;;;;;;10.40;1.77;;;;;;;11.44;100.00;101815.09;4996546;28;20946;-79
2022/05/28 00:57:44;;;;;;;4.33;1.70;;;;;;;11.40;100.00;101808.41;4995364;28;20223;-75
2022/05/28 01:00:13;;;;;;;8.73;1.70;;;;;;;11.17;100.00;101786.09;4994542;28;20452;-78
2022/05/28 01:02:51;;;;;;;8.77;2.10;;;;;;;11.35;100.00;101815.34;4996656;28;21330;-79
2022/05/28 01:05:36;;;;;;;9.53;2.50;;;;;;;11.46;100.00;101822.97;4996360;28;20428;-75
2022/05/28 01:08:10;;;;;;;7.60;1.90;;;;;;;11.29;100.00;101811.50;4993074;28;20837;-80
2022/05/28 01:11:07;;;;;;;8.77;2.07;;;;;;;10.92;100.00;101734.44;5001007;28;20497;-78
2022/05/28 01:14:08;;;;;;;15.30;2.40;;;;;;;11.14;100.00;101765.81;4998634;28;20438;-79
2022/05/28 01:16:48;;;;;;;11.13;2.03;;;;;;;11.34;100.00;101819.03;5001671;28;20459;-79
2022/05/28 01:19:13;;;;;;;8.90;2.30;;;;;;;11.24;100.00;101803.97;5001494;28;20446;-82
2022/05/28 01:21:52;;;;;;;10.90;1.80;;;;;;;11.30;100.00;101807.81;4997275;28;20447;-74
2022/05/28 01:24:34;;;;;;;7.50;2.10;;;;;;;11.23;100.00;101815.75;4997811;28;20193;-79
2022/05/28 01:27:09;;;;;;;7.90;2.27;;;;;;;11.18;100.00;101777.03;5015457;28;20517;-76
2022/05/28 01:29:50;;;;;;;5.70;2.33;;;;;;;11.28;100.00;101799.94;4999939;28;20467;-77
2022/05/28 01:32:18;;;;;;;7.80;2.30;;;;;;;11.32;100.00;101812.00;4999699;28;20444;-80
2022/05/28 01:34:44;;;;;;;9.33;1.67;;;;;;;10.97;100.00;101777.69;5000794;28;20452;-77
2022/05/28 01:37:11;;;;;;;11.17;2.00;;;;;;;11.18;100.00;101818.13;4997596;28;20467;-76
2022/05/28 01:39:43;;;;;;;9.53;2.00;;;;;;;11.17;100.00;101823.69;4998806;28;20439;-76
2022/05/28 01:42:10;;;;;;;6.50;1.83;;;;;;;10.87;100.00;101785.94;4995369;28;20454;-77
2022/05/28 01:44:39;;;;;;;13.10;2.47;;;;;;;10.90;100.00;101792.81;4998963;28;20432;-78
2022/05/28 01:47:05;;;;;;;4.80;2.10;;;;;;;10.84;100.00;101791.69;4996634;28;20874;-75
2022/05/28 01:49:33;;;;;;;16.13;2.67;;;;;;;10.91;100.00;101795.34;4997535;28;20446;-78
2022/05/28 01:52:01;;;;;;;10.73;2.17;;;;;;;11.07;100.00;101830.13;4997121;28;20976;-77
2022/05/28 01:54:36;;;;;;;7.03;2.20;;;;;;;10.90;100.00;101774.03;4991201;28;20940;-76
2022/05/28 01:57:01;;;;;;;11.63;2.07;;;;;;;10.74;100.00;101743.63;4995946;28;20452;-80
2022/05/28 01:59:30;;;;;;;16.27;2.97;;;;;;;10.61;100.00;101717.34;4999444;28;20485;-77
2022/05/28 02:01:59;;;;;;;8.60;2.20;;;;;;;10.88;100.00;101760.81;4993930;28;20256;-79
2022/05/28 02:04:25;;;;;;;12.60;2.90;;;;;;;10.62;100.00;101721.72;4996432;28;20436;-79
2022/05/28 02:06:50;;;;;;;8.53;2.00;;;;;;;11.22;100.00;101818.59;4995012;28;20463;-77
2022/05/28 02:09:20;;;;;;;6.83;1.80;;;;;;;11.27;100.00;101814.38;4996155;28;20468;-77
2022/05/28 02:12:21;;;;;;;17.47;3.47;;;;;;;11.16;100.00;101809.41;4998845;28;20205;-85
2022/05/28 02:15:09;;;;;;;12.30;2.60;;;;;;;10.96;100.00;101786.72;4995028;28;20467;-77
2022/05/28 02:18:05;;;;;;;14.27;3.10;;;;;;;11.14;100.00;101813.28;4996907;28;20463;-83
2022/05/28 02:20:43;;;;;;;18.77;3.20;;;;;;;11.14;100.00;101816.84;5001454;28;20428;-78
2022/05/28 02:23:18;;;;;;;10.30;3.00;;;;;;;11.18;100.00;101828.88;4995860;28;20439;-73
2022/05/28 02:25:52;;;;;;;14.83;2.90;;;;;;;11.15;100.00;101817.66;4997102;28;20443;-76
2022/05/28 02:28:22;;;;;;;12.87;2.70;;;;;;;11.16;100.00;101809.41;4998431;28;20808;-81
2022/05/28 02:30:51;;;;;;;12.80;2.43;;;;;;;11.15;100.00;101801.56;4996121;28;20486;-82
2022/05/28 02:33:17;;;;;;;18.23;3.33;;;;;;;11.19;100.00;101798.31;4992353;28;20444;-77
2022/05/28 02:35:44;;;;;;;12.23;2.50;;;;;;;10.75;100.00;101749.81;4998783;28;20451;-76
2022/05/28 02:38:11;;;;;;;7.80;1.97;;;;;;;10.81;100.00;101757.97;4993034;28;21476;-76
2022/05/28 02:40:37;;;;;;;11.03;2.60;;;;;;;11.01;100.00;101782.50;4993568;28;20434;-76
2022/05/28 02:43:02;;;;;;;6.87;2.33;;;;;;;10.79;100.00;101761.84;4997052;28;20956;-77
2022/05/28 02:45:27;;;;;;;7.00;2.00;;;;;;;11.13;100.00;101793.66;4996121;28;20612;-77
2022/05/28 02:47:53;;;;;;;8.70;2.30;;;;;;;10.94;100.00;101791.47;4992796;28;20205;-81
2022/05/28 02:50:19;;;;;;;9.93;2.70;;;;;;;11.01;100.00;101800.47;4993387;28;20205;-78
2022/05/28 02:52:44;;;;;;;7.80;1.63;;;;;;;11.05;100.00;101796.41;4995465;28;20437;-78
2022/05/28 02:55:10;;;;;;;7.90;2.40;;;;;;;10.92;100.00;101766.66;4993398;28;20243;-78
2022/05/28 02:57:35;;;;;;;10.53;2.23;;;;;;;10.66;100.00;101740.16;4994505;28;20205;-76
2022/05/28 03:00:03;;;;;;;11.53;2.97;;;;;;;11.00;100.00;101790.75;5001971;28;20301;-80
2022/05/28 03:02:28;;;;;;;8.40;2.20;;;;;;;11.07;100.00;101803.25;4998298;28;20188;-78
2022/05/28 03:04:54;;;;;;;12.00;2.70;;;;;;;11.00;100.00;101782.69;4995353;28;20444;-81
2022/05/28 03:07:20;;;;;;;8.10;2.30;;;;;;;10.86;100.00;101757.44;4996175;28;20769;-80
2022/05/28 03:09:45;;;;;;;14.40;2.97;;;;;;;11.15;100.00;101780.06;4996815;28;20522;-77
2022/05/28 03:12:11;;;;;;;9.87;2.73;;;;;;;11.07;100.00;101787.16;5008856;28;20212;-77
2022/05/28 03:14:36;;;;;;;20.90;3.10;;;;;;;11.04;100.00;101757.16;4995187;28;20239;-75
2022/05/28 03:17:02;;;;;;;8.10;2.23;;;;;;;11.18;100.00;101804.72;4994542;28;20205;-77
2022/05/28 03:19:27;;;;;;;11.37;2.20;;;;;;;11.00;100.00;101771.97;4994701;28;20283;-75
2022/05/28 03:21:53;;;;;;;13.97;2.57;;;;;;;10.89;100.00;101758.94;4991799;28;20191;-76
2022/05/28 03:24:18;;;;;;;14.23;3.03;;;;;;;10.89;100.00;101754.41;4995937;28;20181;-76
2022/05/28 03:26:43;;;;;;;5.50;2.00;;;;;;;11.24;100.00;101800.47;4992939;28;20217;-76
2022/05/28 03:29:09;;;;;;;9.13;2.40;;;;;;;11.28;100.00;101802.63;4993978;28;20211;-76
2022/05/28 03:31:34;;;;;;;12.10;3.05;;;;;;;11.30;100.00;101815.88;4997421;28;20213;-77
2022/05/28 03:34:00;;;;;;;12.13;2.30;;;;;;;11.17;100.00;101803.03;4991844;28;20187;-75
2022/05/28 03:36:27;;;;;;;7.97;3.07;;;;;;;11.18;100.00;101793.97;4995364;28;20714;-78
2022/05/28 03:38:53;;;;;;;9.80;2.53;;;;;;;11.07;100.00;101781.78;4992633;28;20184;-76
2022/05/28 03:41:18;;;;;;;8.80;2.90;;;;;;;10.97;100.00;101754.34;4997001;28;20458;-75
2022/05/28 03:43:44;;;;;;;13.30;3.20;;;;;;;11.02;100.00;101769.91;4998203;28;20411;-75
2022/05/28 03:46:25;;;;;;;11.00;2.83;;;;;;;11.31;100.00;101815.69;4991406;28;20191;-77
2022/05/28 03:48:52;;;;;;;9.93;3.00;;;;;;;10.96;100.00;101765.25;4995015;28;20211;-75
2022/05/28 03:51:17;;;;;;;6.37;2.37;;;;;;;11.17;100.00;101821.00;4992070;28;20839;-81
2022/05/28 03:53:42;;;;;;;7.83;2.30;;;;;;;11.11;100.00;101809.13;4994794;28;20440;-82
2022/05/28 03:56:08;;;;;;;6.13;1.77;;;;;;;11.10;100.00;101804.75;4996888;28;20180;-77
2022/05/28 03:58:33;;;;;;;10.10;2.37;;;;;;;11.25;100.00;101811.06;4995079;28;20185;-76
2022/05/28 04:00:59;;;;;;;7.73;1.80;;;;;;;10.46;100.00;101737.06;4997063;28;20186;-74
2022/05/28 04:03:24;;;;;;;7.10;1.60;;;;;;;11.14;100.00;101834.75;4992834;28;20188;-78
2022/05/28 04:05:49;;;;;;;9.95;2.25;;;;;;;11.02;100.00;101808.34;4995848;28;20217;-78
2022/05/28 04:08:15;;;;;;;9.07;2.20;;;;;;;11.20;100.00;101828.72;4995583;28;20239;-83
2022/05/28 04:10:40;;;;;;;7.67;2.43;;;;;;;11.18;100.00;101836.09;4994401;28;20236;-81
2022/05/28 04:13:06;;;;;;;11.47;2.00;;;;;;;11.18;100.00;101844.16;4995761;28;20666;-80
2022/05/28 04:15:32;;;;;;;9.57;2.70;;;;;;;10.90;100.00;101859.91;4998435;28;20276;-76
2022/05/28 04:17:58;;;;;;;6.93;2.40;;;;;;;10.86;100.00;101857.59;4989910;28;20234;-75
2022/05/28 04:20:24;;;;;;;9.00;2.67;;;;;;;9.91;100.00;101710.13;4992209;28;20974;-80
2022/05/28 04:22:49;;;;;;;9.33;2.60;;;;;;;10.62;100.00;101838.94;4993860;28;20193;-78
2022/05/28 04:25:15;;;;;;;9.90;2.20;;;;;;;10.33;100.00;101780.56;4990727;28;20196;-81
2022/05/28 04:27:41;;;;;;;10.97;1.90;;;;;;;10.83;100.00;101838.31;4992679;28;20206;-79
2022/05/28 04:30:07;;;;;;;15.40;2.60;;;;;;;10.55;100.00;101811.94;4997889;28;20254;-79
2022/05/28 04:32:33;;;;;;;9.43;2.13;;;;;;;10.91;100.00;101834.78;5000798;28;20475;-81
2022/05/28 04:34:58;;;;;;;14.13;2.60;;;;;;;10.36;100.00;101758.75;5001923;28;20526;-85
2022/05/28 04:37:23;;;;;;;8.27;2.20;;;;;;;11.12;100.00;101880.59;4999252;28;20628;-78
2022/05/28 04:39:49;;;;;;;10.67;2.50;;;;;;;11.14;100.00;101867.00;4998523;28;20188;-77
2022/05/28 04:42:14;;;;;;;5.30;1.87;;;;;;;11.26;100.00;101870.97;4994539;28;20180;-76
2022/05/28 04:44:40;;;;;;;6.73;1.80;;;;;;;10.97;100.00;101813.41;4999235;28;20196;-77
2022/05/28 04:47:05;;;;;;;9.50;2.30;;;;;;;11.29;100.00;101881.34;4996029;28;20229;-77
2022/05/28 04:49:31;;;;;;;12.40;2.60;;;;;;;11.34;100.00;101886.16;4997893;28;20232;-82
2022/05/28 04:51:56;;;;;;;9.50;2.60;;;;;;;10.84;100.00;101816.66;4996468;28;20217;-76
2022/05/28 04:54:22;;;;;;;10.00;2.53;;;;;;;10.93;100.00;101800.50;4993611;28;21586;-81
2022/05/28 04:56:47;;;;;;;10.43;2.40;;;;;;;11.40;100.00;101874.72;4996262;28;20558;-77
2022/05/28 04:59:12;;;;;;;11.80;2.50;;;;;;;11.32;100.00;101863.03;4998193;28;20196;-83
2022/05/28 05:01:38;;;;;;;13.57;3.60;;;;;;;10.91;100.00;101822.19;4997272;28;20221;-83
2022/05/28 05:04:04;;;;;;;15.03;2.30;;;;;;;11.36;100.00;101901.09;5010032;28;20177;-75
2022/05/28 05:06:29;;;;;;;10.03;1.97;;;;;;;10.80;100.00;101817.22;4999699;28;20198;-75
2022/05/28 05:08:54;;;;;;;7.17;2.10;;;;;;;10.60;100.00;101773.88;4997059;28;20905;-84
2022/05/28 05:11:20;;;;;;;9.83;3.03;;;;;;;11.71;100.00;101894.28;5002449;28;20201;-74
2022/05/28 05:13:45;;;;;;;6.97;1.90;;;;;;;11.65;100.00;101894.19;4998195;28;20189;-79
2022/05/28 05:16:16;;;;;;;8.23;2.90;;;;;;;11.50;100.00;101859.19;5021992;28;20650;-84
2022/05/28 05:18:41;;;;;;;15.07;2.57;;;;;;;11.73;100.00;101878.00;5000099;28;20186;-78
2022/05/28 05:21:07;;;;;;;7.37;2.50;;;;;;;11.85;100.00;101889.16;5000116;28;20442;-83
2022/05/28 05:23:33;;;;;;;18.00;3.17;;;;;;;11.85;100.00;101890.00;4998006;28;20280;-77
2022/05/28 05:25:59;;;;;;;6.03;2.43;;;;;;;11.83;100.00;101858.91;4999599;28;20444;-77
2022/05/28 05:28:24;;;;;;;14.23;2.97;;;;;;;11.63;100.00;101829.88;4997272;28;20209;-85
2022/05/28 05:30:49;;;;;;;12.80;2.90;;;;;;;11.33;100.00;101826.25;4999652;28;20208;-75
2022/05/28 05:33:15;;;;;;;7.83;2.60;;;;;;;11.72;100.00;101861.03;5001488;28;20248;-77
2022/05/28 05:35:40;;;;;;;13.67;2.30;;;;;;;11.82;100.00;101881.44;5001048;28;20567;-79
2022/05/28 05:38:08;;;;;;;24.83;3.90;;;;;;;11.53;100.00;101838.16;4998457;28;20203;-80
2022/05/28 05:40:37;;;;;;;9.03;2.33;;;;;;;11.61;100.00;101839.13;5001897;28;20279;-83
2022/05/28 05:43:03;;;;;;;13.80;2.90;;;;;;;11.86;100.00;101861.25;5001506;28;20440;-77
2022/05/28 05:45:28;;;;;;;17.13;3.40;;;;;;;11.44;100.00;101815.09;5002568;28;20801;-83
2022/05/28 05:47:53;;;;;;;9.40;2.93;;;;;;;11.45;100.00;101827.47;5001023;28;20291;-82
2022/05/28 05:50:19;;;;;;;7.80;2.60;;;;;;;11.72;100.00;101849.44;5000633;28;20217;-75
2022/05/28 05:52:44;;;;;;;7.80;2.37;;;;;;;12.11;100.00;101892.28;4996592;28;20197;-76
2022/05/28 05:55:10;;;;;;;9.27;2.33;;;;;;;12.21;100.00;101881.28;4996339;28;20193;-77
2022/05/28 05:57:35;;;;;;;9.37;2.70;;;;;;;12.15;100.00;101904.38;4999115;28;20196;-77
2022/05/28 06:00:00;;;;;;;11.77;3.03;;;;;;;12.03;100.00;101926.47;5000294;28;20177;-78
2022/05/28 06:02:26;;;;;;;6.27;2.27;;;;;;;11.09;100.00;101790.50;4998724;28;20248;-76
2022/05/28 06:04:53;;;;;;;8.23;1.90;;;;;;;11.57;100.00;101899.59;5000142;28;20362;-79
2022/05/28 06:07:19;;;;;;;5.87;1.90;;;;;;;11.51;100.00;101930.72;4995431;28;20247;-78
2022/05/28 06:09:44;;;;;;;7.77;1.83;;;;;;;11.22;100.00;101881.19;4999004;28;20502;-79
2022/05/28 06:12:10;;;;;;;4.70;1.47;;;;;;;11.25;100.00;101863.91;4997495;28;20219;-76
2022/05/28 06:14:35;;;;;;;6.17;1.73;;;;;;;11.35;100.00;101926.28;4998147;28;20189;-84
2022/05/28 06:17:00;;;;;;;5.27;1.70;;;;;;;10.34;100.00;101764.28;4992240;28;20206;-86
2022/05/28 06:19:26;;;;;;;6.90;1.77;;;;;;;11.50;100.00;101931.75;5000272;28;20189;-83
2022/05/28 06:21:51;;;;;;;13.30;2.43;;;;;;;11.46;100.00;101912.47;4998135;28;20193;-75
2022/05/28 06:24:17;;;;;;;16.17;3.53;;;;;;;11.85;100.00;101946.47;4991438;28;20193;-76
2022/05/28 06:26:42;;;;;;;6.25;2.05;;;;;;;11.49;100.00;101976.59;4995258;28;20224;-78
2022/05/28 06:29:07;;;;;;;10.40;2.57;;;;;;;11.35;100.00;101966.59;4992069;28;20224;-74
2022/05/28 06:31:33;;;;;;;5.80;1.53;;;;;;;11.31;100.00;101965.25;4997101;28;20205;-72
2022/05/28 06:33:58;;;;;;;8.30;2.03;;;;;;;11.33;100.00;101952.50;4996210;28;20681;-77
2022/05/28 06:36:24;;;;;;;9.47;2.30;;;;;;;11.17;100.00;101940.00;4999676;28;20247;-78
2022/05/28 06:38:49;;;;;;;9.27;2.60;;;;;;;11.44;100.00;101962.84;4994608;28;20308;-79
2022/05/28 06:41:15;;;;;;;14.40;2.53;;;;;;;11.43;100.00;101958.50;4994873;28;20182;-81
2022/05/28 06:43:40;;;;;;;11.90;2.60;;;;;;;11.72;100.00;101973.09;4999490;28;20185;-84
2022/05/28 06:46:09;;;;;;;12.43;2.70;;;;;;;11.40;100.00;101940.03;4999171;28;20177;-79
2022/05/28 06:48:35;;;;;;;11.57;3.07;;;;;;;10.83;100.00;101832.97;4995338;28;20657;-78
2022/05/28 06:51:01;;;;;;;11.17;2.73;;;;;;;11.63;100.00;101956.19;4997390;28;20464;-84
2022/05/28 06:53:48;;;;;;;7.23;2.47;;;;;;;11.43;100.00;101896.69;5013968;28;20448;-75
2022/05/28 06:56:15;;;;;;;15.60;3.13;;;;;;;11.95;100.00;101949.75;4994127;28;21129;-84
2022/05/28 06:58:41;;;;;;;12.63;3.27;;;;;;;11.28;100.00;101844.75;4995192;28;20448;-82
2022/05/28 07:01:07;;;;;;;9.17;3.03;;;;;;;12.11;100.00;101940.69;4995885;28;20442;-77
2022/05/28 07:03:33;;;;;;;18.00;3.17;;;;;;;12.06;100.00;101942.25;4998574;28;20848;-80
2022/05/28 07:05:59;;;;;;;11.30;3.07;;;;;;;12.19;100.00;101943.31;4998853;28;21229;-82
2022/05/28 07:08:26;;;;;;;9.90;2.43;;;;;;;12.33;100.00;101947.06;4999156;28;20577;-79
2022/05/28 07:10:54;;;;;;;9.30;2.40;;;;;;;12.38;100.00;101917.75;4997549;28;20473;-78
2022/05/28 07:13:22;;;;;;;8.23;2.17;;;;;;;12.56;100.00;101935.38;4996448;28;20447;-79
2022/05/28 07:15:47;;;;;;;8.90;2.70;;;;;;;11.89;100.00;101820.56;4993439;28;20443;-82
2022/05/28 07:18:14;;;;;;;16.20;3.13;;;;;;;11.99;100.00;101861.50;4996870;28;20471;-78
2022/05/28 07:20:40;;;;;;;10.90;2.47;;;;;;;12.33;100.00;101881.66;4992695;28;20267;-77
2022/05/28 07:23:10;;;;;;;12.60;3.13;;;;;;;12.31;100.00;101889.91;4992962;28;20452;-83
2022/05/28 07:25:36;;;;;;;13.00;3.23;;;;;;;12.50;100.00;101941.47;4992517;28;20448;-75
2022/05/28 07:28:24;;;;;;;8.50;2.07;;;;;;;12.56;100.00;101928.16;4991908;28;20990;-81
2022/05/28 07:30:47;;;;;;;9.60;3.17;;;;;;;12.01;100.00;101813.75;4994918;28;20500;-79
2022/05/28 07:33:13;;;;;;;10.37;2.73;;;;;;;12.38;100.00;101882.78;4987420;28;20582;-78
2022/05/28 07:35:38;;;;;;;6.93;2.40;;;;;;;12.34;100.00;101881.44;4993899;28;20181;-76
2022/05/28 07:38:04;;;;;;;4.50;2.03;;;;;;;12.60;100.00;101915.97;4989590;28;20223;-75
2022/05/28 07:40:34;;;;;;;6.00;2.00;;;;;;;13.12;100.00;101924.94;4991022;28;20185;-74
2022/05/28 07:43:00;;;;;;;11.13;2.27;;;;;;;13.08;100.00;101927.19;4994270;28;20185;-75
2022/05/28 07:45:25;;;;;;;14.70;2.60;;;;;;;12.55;100.00;101850.28;4996767;28;20448;-81
2022/05/28 07:47:51;;;;;;;10.50;2.73;;;;;;;12.74;100.00;101927.78;4995654;28;20467;-75
2022/05/28 07:50:17;;;;;;;11.17;2.83;;;;;;;12.12;100.00;101867.09;4997569;28;20212;-78
2022/05/28 07:52:42;;;;;;;8.93;2.50;;;;;;;12.42;100.00;101912.81;5001114;28;20189;-79
2022/05/28 07:55:10;;;;;;;10.23;2.17;;;;;;;12.39;100.00;101940.94;4989974;28;20530;-71
2022/05/28 07:57:35;;;;;;;8.67;1.90;;;;;;;12.14;100.00;101939.50;5010832;28;20209;-77
2022/05/28 08:00:03;;;;;;;5.60;1.80;;;;;;;12.23;100.00;101919.56;4995509;28;20435;-77
2022/05/28 08:02:28;;;;;;;6.47;1.57;;;;;;;12.40;100.00;101939.91;4996838;28;20201;-70
2022/05/28 08:04:53;;;;;;;4.50;1.50;;;;;;;12.30;100.00;101930.44;4991537;28;20447;-71
2022/05/28 08:07:19;;;;;;;5.23;1.87;;;;;;;12.77;100.00;101959.69;4993345;28;20220;-74
2022/05/28 08:09:44;;;;;;;9.60;2.33;;;;;;;12.37;100.00;101899.91;4994541;28;20264;-75
2022/05/28 08:12:11;;;;;;;10.17;2.67;;;;;;;12.62;100.00;101965.09;4996056;28;20843;-75
2022/05/28 08:14:36;;;;;;;8.07;1.97;;;;;;;12.83;100.00;101961.66;4994949;28;20239;-72
2022/05/28 08:17:02;;;;;;;18.83;3.10;;;;;;;12.39;100.00;101919.41;4992321;28;22384;-73
2022/05/28 08:19:27;;;;;;;11.13;2.33;;;;;;;12.76;100.00;101955.34;4994852;28;20602;-72
2022/05/28 08:24:37;;;;;;;15.23;3.13;;;;;;;12.55;100.00;101931.00;4988595;28;20184;-74
2022/05/28 08:27:03;;;;;;;13.10;3.30;;;;;;;12.82;100.00;101968.06;4993819;28;20456;-76
2022/05/28 08:29:28;;;;;;;9.93;2.63;;;;;;;13.11;100.00;101967.19;4996663;28;20197;-71
2022/05/28 08:31:54;;;;;;;9.53;2.37;;;;;;;12.88;100.00;101893.78;4994111;28;20208;-75
2022/05/28 08:34:19;;;;;;;9.53;2.57;;;;;;;12.62;100.00;101854.72;4994736;28;20193;-74
2022/05/28 08:36:45;;;;;;;9.00;2.53;;;;;;;13.11;100.00;101885.56;4998564;28;20220;-73
2022/05/28 08:39:10;;;;;;;11.30;2.97;;;;;;;13.21;100.00;101957.97;4993142;28;20641;-72
2022/05/28 08:41:43;;;;;;;11.00;3.50;;;;;;;12.98;100.00;101968.88;4994840;28;20271;-74
2022/05/28 08:44:17;;;;;;;11.33;2.83;;;;;;;12.82;100.00;101972.63;4991036;28;20189;-77
2022/05/28 08:46:45;;;;;;;13.73;2.93;;;;;;;13.04;100.00;101971.66;4991737;28;20463;-75
2022/05/28 08:49:14;;;;;;;17.20;3.63;;;;;;;13.07;100.00;101938.13;4994011;28;20440;-77
2022/05/28 08:52:15;;;;;;;8.03;2.40;;;;;;;13.49;100.00;101974.31;4994557;28;20468;-78
2022/05/28 08:54:57;;;;;;;8.47;2.53;;;;;;;13.57;100.00;101960.72;4981000;28;20449;-75
2022/05/28 08:57:46;;;;;;;8.87;2.13;;;;;;;13.74;100.00;101964.84;4998037;28;20461;-72
2022/05/28 09:00:16;;;;;;;6.30;2.00;;;;;;;13.80;100.00;101960.53;4992469;28;20430;-77
2022/05/28 09:02:49;;;;;;;10.47;2.60;;;;;;;13.73;100.00;101965.00;4991114;28;20443;-74
2022/05/28 09:05:28;;;;;;;7.53;2.30;;;;;;;13.50;100.00;101944.44;4992036;28;20486;-73
2022/05/28 09:07:58;;;;;;;9.90;2.10;;;;;;;13.11;100.00;101851.38;4992125;28;21038;-74
2022/05/28 09:10:26;;;;;;;10.87;2.43;;;;;;;13.33;100.00;101948.41;4989446;28;20450;-72
2022/05/28 09:13:01;;;;;;;11.53;2.50;;;;;;;13.48;100.00;101972.63;4993021;28;20932;-74
2022/05/28 09:15:26;;;;;;;9.40;2.47;;;;;;;13.62;100.00;101977.13;4994837;28;20443;-77
2022/05/28 09:17:56;;;;;;;11.03;2.83;;;;;;;12.59;100.00;101817.44;4999510;28;20463;-77
2022/05/28 09:20:31;;;;;;;8.87;2.50;;;;;;;13.12;100.00;101965.34;4998314;28;20200;-71
2022/05/28 09:22:57;;;;;;;10.00;2.20;;;;;;;13.54;100.00;101977.28;4993679;28;20460;-72
2022/05/28 09:25:29;;;;;;;8.63;2.50;;;;;;;13.55;100.00;101974.38;4998077;28;20471;-76
2022/05/28 09:28:14;;;;;;;10.27;2.47;;;;;;;13.44;100.00;101968.66;4992903;28;20693;-73
2022/05/28 09:31:18;;;;;;;10.60;3.10;;;;;;;13.39;100.00;101979.16;4995232;28;20478;-73
2022/05/28 09:34:12;;;;;;;10.20;2.50;;;;;;;13.81;100.00;101974.84;4994356;28;20521;-72
2022/05/28 09:36:41;;;;;;;12.63;2.57;;;;;;;14.00;100.00;101966.09;4993266;28;20468;-73
2022/05/28 09:39:25;;;;;;;14.13;2.63;;;;;;;14.04;100.00;101982.75;4996118;28;20435;-72
2022/05/28 09:42:36;;;;;;;7.47;2.20;;;;;;;13.85;100.00;101978.81;4995524;28;20438;-74
2022/05/28 09:45:07;;;;;;;5.60;2.20;;;;;;;13.56;100.00;101962.56;4994100;28;20482;-75
2022/05/28 09:47:47;;;;;;;9.37;2.90;;;;;;;13.78;100.00;101968.81;5001097;28;20491;-76
2022/05/28 09:50:28;;;;;;;7.93;2.27;;;;;;;13.61;100.00;101975.47;4994304;28;20446;-75
2022/05/28 09:58:34;;;;;;;9.10;2.20;;;;;;;13.88;100.00;101944.19;4991177;28;20488;-80
2022/05/28 10:01:11;;;;;;;6.23;2.10;;;;;;;13.12;100.00;101890.75;4995093;28;20441;-78
2022/05/28 10:06:30;;;;;;;6.20;1.80;;;;;;;13.49;100.00;101907.75;4994902;28;21058;-87
2022/05/28 10:08:56;;;;;;;5.90;2.30;;;;;;;13.90;100.00;101946.72;4997483;28;20783;-78
2022/05/28 10:11:23;;;;;;;9.43;2.10;;;;;;;13.88;100.00;101944.19;4994561;28;20476;-78
2022/05/28 10:13:54;;;;;;;8.07;2.33;;;;;;;13.87;100.00;101960.59;4998638;28;20184;-75
2022/05/28 10:16:23;;;;;;;6.83;2.43;;;;;;;13.62;100.00;101946.66;4998851;28;20455;-79
2022/05/28 10:18:58;;;;;;;8.73;2.53;;;;;;;14.09;100.00;101964.09;5011621;28;20436;-78
2022/05/28 10:21:31;;;;;;;9.00;3.10;;;;;;;13.99;100.00;101972.53;4995842;28;20825;-84
2022/05/28 10:24:01;;;;;;;10.30;2.70;;;;;;;13.76;100.00;101948.44;4994649;28;20435;-84
2022/05/28 10:26:47;;;;;;;10.97;2.30;;;;;;;14.15;100.00;101982.22;4998699;28;20463;-78
2022/05/28 10:29:18;;;;;;;13.30;2.60;;;;;;;14.32;100.00;101980.06;4997055;28;20444;-86
2022/05/28 10:31:46;;;;;;;7.27;2.03;;;;;;;13.82;100.00;101918.00;4996473;28;20472;-84
2022/05/28 10:34:31;;;;;;;5.60;1.77;;;;;;;14.11;100.00;101930.50;4999676;28;20522;-79
2022/05/28 10:37:26;;;;;;;10.67;2.10;;;;;;;14.38;100.00;101980.13;4990786;28;20464;-78
2022/05/28 10:40:03;;;;;;;6.00;1.97;;;;;;;14.19;100.00;101937.63;4990273;28;20470;-79
2022/05/28 10:42:29;;;;;;;10.37;2.70;;;;;;;14.58;100.00;101983.00;4996957;28;20432;-79
2022/05/28 10:44:56;;;;;;;4.80;1.50;;;;;;;13.88;100.00;101892.97;5002765;28;20433;-78
2022/05/28 10:47:41;;;;;;;8.70;2.10;;;;;;;14.41;100.00;101987.00;5002253;28;20204;-79
2022/05/28 10:50:18;;;;;;;5.03;1.47;;;;;;;14.55;100.00;101980.69;5001458;28;20458;-79
2022/05/28 10:53:30;;;;;;;3.17;1.27;;;;;;;14.50;100.00;101976.88;5002396;28;20435;-85
2022/05/28 10:56:02;;;;;;;8.43;2.37;;;;;;;14.09;100.00;101972.19;4976574;28;20425;-77
2022/05/28 10:58:42;;;;;;;6.53;1.63;;;;;;;13.92;100.00;101996.75;5003964;28;20432;-79
2022/05/28 11:01:20;;;;;;;7.00;2.37;;;;;;;14.25;100.00;101983.53;5003007;28;20463;-85
2022/05/28 11:04:03;;;;;;;5.47;2.00;;;;;;;14.85;100.00;101991.25;5002260;28;20438;-82
2022/05/28 11:06:47;;;;;;;10.83;1.80;;;;;;;14.57;100.00;101975.91;5001743;28;20503;-78
2022/05/28 11:09:24;;;;;;;6.37;1.73;;;;;;;14.88;100.00;101972.78;5006646;28;20437;-79
2022/05/28 11:12:10;;;;;;;5.27;1.80;;;;;;;14.36;100.00;101970.56;5005319;28;20955;-80
2022/05/28 11:15:05;;;;;;;8.63;2.60;;;;;;;14.25;100.00;101990.81;5002926;28;20470;-81
2022/05/28 11:17:34;;;;;;;7.23;1.90;;;;;;;14.21;100.00;101992.22;5003891;28;20810;-83
2022/05/28 11:20:18;;;;;;;16.17;2.33;;;;;;;14.18;100.00;101992.63;5004100;28;21188;-83
2022/05/28 11:23:16;;;;;;;6.17;2.27;;;;;;;13.60;100.00;101857.91;5003159;28;20451;-82
2022/05/28 11:26:01;;;;;;;11.70;2.63;;;;;;;14.33;100.00;101995.22;5001978;28;20452;-81
2022/05/28 11:29:02;;;;;;;8.30;2.20;;;;;;;14.44;100.00;101965.00;5001327;28;20971;-84
2022/05/28 11:31:41;;;;;;;7.70;2.27;;;;;;;14.20;100.00;101995.94;4970181;28;20533;-78
2022/05/28 11:34:30;;;;;;;12.77;2.60;;;;;;;14.49;100.00;101981.44;5000758;28;20464;-83
2022/05/28 11:37:04;;;;;;;9.30;2.20;;;;;;;14.34;100.00;101995.03;5003566;28;20436;-84
2022/05/28 11:39:42;;;;;;;8.70;2.27;;;;;;;14.09;100.00;101916.38;5002118;28;20529;-87